createdAt,value
2018-02-15T09:38:35.104Z,15.40
2018-02-15T09:41:04.104Z,17.45
2018-02-15T09:43:33.880Z,18.17
2018-02-15T09:46:03.678Z,16.27
2018-02-15T09:48:33.529Z,17.00
2018-02-15T09:53:38.396Z,16.05
2018-02-15T09:56:07.494Z,17.33
2018-02-15T09:58:36.529Z,16.70
2018-02-15T10:01:05.521Z,18.20
2018-02-15T10:03:34.856Z,18.35
2018-02-15T10:06:04.714Z,18.23
2018-02-15T10:08:33.680Z,17.87
2018-02-15T10:11:02.737Z,16.87
2018-02-15T10:13:31.842Z,17.20
2018-02-15T10:16:01.815Z,17.60
2018-02-15T10:18:30.958Z,17.98
2018-02-15T10:21:00.085Z,18.10
2018-02-15T10:23:29.412Z,17.98
2018-02-15T10:25:58.437Z,17.17
2018-02-15T10:28:28.305Z,17.73
2018-02-15T10:30:57.381Z,19.17
2018-02-15T10:33:26.402Z,17.75
2018-02-15T10:35:56.301Z,18.45
2018-02-15T10:38:30.767Z,17.60
2018-02-15T10:41:01.176Z,19.65
2018-02-15T10:43:31.677Z,18.27
2018-02-15T10:46:00.785Z,15.70
2018-02-15T10:48:30.657Z,16.90
2018-02-15T10:50:59.788Z,16.02
2018-02-15T10:54:31.593Z,16.40
2018-02-15T10:57:01.094Z,16.60
2018-02-15T10:59:30.910Z,17.92
2018-02-15T11:02:04.668Z,18.87
2018-02-15T11:04:34.364Z,17.33
2018-02-15T11:07:03.671Z,16.55
2018-02-15T11:09:33.245Z,18.08
2018-02-15T11:12:03.325Z,18.75
2018-02-15T11:14:33.101Z,17.45
2018-02-15T11:17:02.176Z,17.15
2018-02-15T11:19:31.251Z,17.17
2018-02-15T11:22:00.553Z,17.23
2018-02-15T11:24:29.569Z,17.98
2018-02-15T11:27:04.785Z,17.58
2018-02-15T11:29:33.801Z,17.35
2018-02-15T11:32:06.398Z,18.42
2018-02-15T11:34:35.388Z,17.25
2018-02-15T11:37:04.407Z,17.17
2018-02-15T11:39:33.484Z,17.10
2018-02-15T11:42:04.131Z,16.08
2018-02-15T11:44:33.151Z,16.40
2018-02-15T11:47:02.277Z,16.50
2018-02-15T11:49:32.052Z,16.50
2018-02-15T11:52:01.128Z,15.30
2018-02-15T11:54:30.281Z,16.60
2018-02-15T11:56:59.321Z,17.60
2018-02-15T11:59:29.264Z,17.08
2018-02-15T12:01:58.309Z,17.35
2018-02-15T12:04:30.819Z,19.50
2018-02-15T12:07:04.855Z,17.42
2018-02-15T12:09:34.735Z,17.95
2018-02-15T12:12:04.613Z,19.37
2018-02-15T12:14:33.674Z,18.55
2018-02-15T12:17:03.690Z,19.40
2018-02-15T12:19:33.808Z,20.95
2018-02-15T12:22:03.542Z,19.85
2018-02-15T12:24:33.678Z,20.42
2018-02-15T12:27:03.875Z,20.30
2018-02-15T12:29:33.621Z,21.73
2018-02-15T12:32:03.444Z,21.80
2018-02-15T12:34:34.134Z,19.55
2018-02-15T12:39:38.698Z,20.02
2018-02-15T12:42:07.785Z,19.40
2018-02-15T12:44:36.755Z,20.95
2018-02-15T12:47:06.540Z,19.45
2018-02-15T12:49:35.542Z,21.60
2018-02-15T12:52:05.394Z,21.42
2018-02-15T12:54:35.200Z,21.08
2018-02-15T12:57:05.398Z,21.37
2018-02-15T12:59:35.321Z,19.45
2018-02-15T13:02:05.526Z,19.70
2018-02-15T13:04:34.611Z,19.50
2018-02-15T13:07:03.649Z,20.52
2018-02-15T13:09:33.422Z,19.25
2018-02-15T13:12:03.201Z,19.15
2018-02-15T13:14:32.248Z,18.48
2018-02-15T13:17:02.295Z,20.02
2018-02-15T13:19:42.285Z,18.52
2018-02-15T13:22:20.943Z,19.60
2018-02-15T13:24:50.870Z,20.35
2018-02-15T13:27:32.088Z,18.95
2018-02-15T13:30:01.138Z,20.65
2018-02-15T13:32:30.307Z,20.75
2018-02-15T13:35:01.552Z,18.37
2018-02-15T13:37:31.424Z,18.17
2018-02-15T13:40:01.560Z,19.17
2018-02-15T13:42:32.748Z,18.62
2018-02-15T13:45:02.604Z,19.17
2018-02-15T13:47:32.704Z,19.45
2018-02-15T13:50:02.401Z,17.83
2018-02-15T13:52:32.193Z,18.05
2018-02-15T13:55:01.484Z,17.42
2018-02-15T13:57:38.003Z,17.35
2018-02-15T14:00:07.023Z,17.08
2018-02-15T14:02:36.025Z,17.35
2018-02-15T14:05:05.116Z,15.90
2018-02-15T14:07:34.160Z,15.95
2018-02-15T14:10:03.226Z,15.10
2018-02-15T14:12:32.486Z,18.33
2018-02-15T14:15:02.385Z,15.93
2018-02-15T14:17:31.438Z,17.62
2018-02-15T14:20:01.194Z,17.52
2018-02-15T14:22:30.727Z,16.90
2018-02-15T14:24:59.793Z,16.20
2018-02-15T14:27:40.136Z,17.33
2018-02-15T14:30:09.113Z,16.45
2018-02-15T14:32:38.122Z,18.52
2018-02-15T14:35:13.737Z,17.20
2018-02-15T14:37:43.544Z,19.90
2018-02-15T14:40:13.369Z,18.75
2018-02-15T14:42:43.224Z,18.52
2018-02-15T14:45:12.285Z,17.10
2018-02-15T14:47:48.226Z,17.75
2018-02-15T14:50:17.980Z,18.55
2018-02-15T14:52:51.674Z,17.15
2018-02-15T14:55:21.799Z,18.67
2018-02-15T14:57:50.835Z,20.05
2018-02-15T15:00:19.905Z,18.27
2018-02-15T15:02:49.092Z,17.62
2018-02-15T15:05:18.119Z,18.95
2018-02-15T15:07:47.223Z,20.10
2018-02-15T15:10:16.763Z,17.42
2018-02-15T15:12:46.320Z,18.37
2018-02-15T15:15:15.331Z,18.75
2018-02-15T15:17:51.841Z,17.75
2018-02-15T15:20:20.862Z,18.25
2018-02-15T15:22:51.108Z,17.70
2018-02-15T15:25:20.183Z,17.95
2018-02-15T15:27:49.295Z,18.20
2018-02-15T15:30:18.380Z,19.65
2018-02-15T15:32:47.401Z,20.75
2018-02-15T15:35:17.294Z,18.10
2018-02-15T15:37:46.376Z,18.50
2018-02-15T15:40:16.174Z,19.15
2018-02-15T15:42:51.330Z,18.10
2018-02-15T15:45:20.317Z,19.33
2018-02-15T15:47:49.253Z,17.65
2018-02-15T15:50:19.045Z,17.00
2018-02-15T15:52:48.089Z,16.80
2018-02-15T15:55:18.034Z,18.42
2018-02-15T15:57:47.094Z,17.50
2018-02-15T16:00:20.717Z,17.45
2018-02-15T16:02:50.930Z,18.17
2018-02-15T16:05:20.949Z,18.75
2018-02-15T16:07:53.453Z,17.75
2018-02-15T16:10:24.309Z,18.17
2018-02-15T16:12:56.505Z,19.33
2018-02-15T16:15:25.547Z,17.60
2018-02-15T16:17:57.805Z,19.20
2018-02-15T16:20:30.323Z,18.55
2018-02-15T16:23:05.231Z,19.15
2018-02-15T16:25:41.888Z,21.80
2018-02-15T16:28:14.424Z,18.67
2018-02-15T16:30:51.344Z,19.25
2018-02-15T16:33:29.155Z,20.30
2018-02-15T16:36:01.951Z,20.27
2018-02-15T16:38:32.440Z,18.40
2018-02-15T16:41:04.774Z,19.83
2018-02-15T16:43:38.472Z,20.05
2018-02-15T16:46:14.092Z,18.40
2018-02-15T16:48:47.326Z,20.67
2018-02-15T16:51:28.721Z,19.58
2018-02-15T16:54:01.858Z,19.23
2018-02-15T16:56:34.134Z,20.70
2018-02-15T16:59:05.744Z,17.85
2018-02-15T17:01:35.822Z,18.45
2018-02-15T17:06:47.759Z,19.20
2018-02-15T17:09:29.130Z,20.75
2018-02-15T17:11:59.825Z,20.58
2018-02-15T17:14:28.807Z,20.55
2018-02-15T17:16:57.876Z,21.35
2018-02-15T17:19:27.271Z,23.12
2018-02-15T17:21:56.517Z,22.10
2018-02-15T17:24:25.584Z,21.92
2018-02-15T17:26:54.718Z,21.42
2018-02-15T17:29:23.789Z,20.92
2018-02-15T17:31:52.832Z,21.12
2018-02-15T17:34:23.410Z,21.08
2018-02-15T17:36:52.338Z,22.27
2018-02-15T17:39:21.866Z,22.20
2018-02-15T17:41:51.154Z,23.02
2018-02-15T17:44:21.134Z,23.70
2018-02-15T17:46:50.211Z,23.42
2018-02-15T17:49:19.515Z,21.98
2018-02-15T17:51:48.668Z,22.48
2018-02-15T17:54:17.676Z,24.02
2018-02-15T17:56:46.713Z,24.30
2018-02-15T17:59:15.740Z,23.38
2018-02-15T18:01:45.668Z,23.95
2018-02-15T18:04:14.681Z,24.15
2018-02-15T18:06:44.506Z,23.70
2018-02-15T18:09:13.497Z,24.92
2018-02-15T18:11:42.520Z,25.05
2018-02-15T18:14:11.510Z,24.65
2018-02-15T18:16:40.540Z,24.45
2018-02-15T18:19:09.515Z,24.20
2018-02-15T18:21:39.260Z,24.35
2018-02-15T18:24:08.977Z,23.70
2018-02-15T18:26:37.966Z,24.55
2018-02-15T18:29:07.397Z,26.12
2018-02-15T18:31:36.526Z,24.75
2018-02-15T18:34:06.508Z,25.70
2018-02-15T18:36:35.494Z,27.45
2018-02-15T18:39:04.986Z,27.87
2018-02-15T18:41:34.025Z,27.15
2018-02-15T18:44:03.130Z,25.40
2018-02-15T18:46:32.924Z,25.25
2018-02-15T18:49:01.921Z,26.95
2018-02-15T18:51:30.893Z,24.20
2018-02-15T18:54:04.377Z,21.52
2018-02-15T18:56:45.834Z,26.62
2018-02-15T19:00:17.157Z,24.15
2018-02-15T19:02:49.566Z,23.60
2018-02-15T19:05:19.333Z,23.60
2018-02-15T19:07:48.311Z,26.87
2018-02-15T19:10:17.831Z,25.17
2018-02-15T19:12:46.901Z,24.50
2018-02-15T19:15:16.685Z,24.50
2018-02-15T19:17:46.519Z,24.30
2018-02-15T19:20:15.596Z,23.17
2018-02-15T19:22:45.431Z,24.45
2018-02-15T19:25:14.448Z,24.60
2018-02-15T19:27:44.244Z,24.70
2018-02-15T19:30:13.223Z,25.48
2018-02-15T19:32:42.944Z,25.20
2018-02-15T19:35:11.922Z,26.37
2018-02-15T19:37:40.906Z,27.08
2018-02-15T19:40:09.924Z,27.95
2018-02-15T19:42:39.658Z,28.55
2018-02-15T19:45:08.696Z,26.85
2018-02-15T19:47:38.045Z,27.95
2018-02-15T19:50:07.834Z,27.33
2018-02-15T19:52:36.798Z,26.20
2018-02-15T19:55:08.737Z,29.45
2018-02-15T19:57:45.117Z,29.92
2018-02-15T20:00:14.799Z,28.80
2018-02-15T20:02:44.568Z,27.13
2018-02-15T20:07:58.660Z,26.30
2018-02-15T20:11:46.860Z,29.15
2018-02-15T20:14:22.250Z,26.12
2018-02-15T20:16:51.246Z,29.83
2018-02-15T20:19:20.332Z,27.20
2018-02-15T20:21:49.308Z,27.17
2018-02-15T20:24:18.388Z,28.50
2018-02-15T20:26:51.584Z,26.80
2018-02-15T20:29:20.552Z,26.75
2018-02-15T20:31:49.515Z,25.65
2018-02-15T20:34:20.725Z,28.83
2018-02-15T20:36:49.850Z,25.73
2018-02-15T20:41:29.005Z,25.37
2018-02-15T20:43:59.064Z,23.60
2018-02-15T20:46:28.045Z,24.00
2018-02-15T20:49:01.207Z,24.77
2018-02-15T20:53:48.903Z,26.90
2018-02-15T20:56:28.019Z,26.30
2018-02-15T20:58:57.069Z,27.13
2018-02-15T21:01:26.880Z,27.23
2018-02-15T21:03:56.679Z,24.77
2018-02-15T21:06:26.449Z,25.08
2018-02-15T21:08:56.168Z,24.90
2018-02-15T21:11:25.135Z,24.95
2018-02-15T21:13:54.105Z,26.05
2018-02-15T21:16:30.204Z,26.60
2018-02-15T21:18:59.900Z,25.33
2018-02-15T21:21:28.826Z,26.50
2018-02-15T21:23:57.805Z,27.80
2018-02-15T21:26:26.796Z,24.67
2018-02-15T21:28:55.796Z,24.20
2018-02-15T21:31:24.730Z,24.83
2018-02-15T21:33:54.429Z,25.00
2018-02-15T21:36:23.712Z,25.25
2018-02-15T21:38:53.516Z,24.50
2018-02-15T21:41:22.469Z,23.60
2018-02-15T21:43:51.439Z,26.15
2018-02-15T21:46:21.193Z,25.12
2018-02-15T21:48:50.173Z,24.60
2018-02-15T21:51:19.238Z,27.05
2018-02-15T21:53:48.281Z,24.98
2018-02-15T21:56:17.280Z,27.10
2018-02-15T21:58:46.278Z,26.30
2018-02-15T22:01:15.281Z,26.67
2018-02-15T22:03:44.222Z,26.77
2018-02-15T22:06:13.251Z,26.77
2018-02-15T22:08:42.229Z,26.40
2018-02-15T22:11:11.160Z,26.30
2018-02-15T22:13:40.088Z,27.13
2018-02-15T22:16:10.064Z,26.60
2018-02-15T22:18:39.009Z,26.83
2018-02-15T22:21:08.000Z,28.20
2018-02-15T22:23:36.966Z,28.50
2018-02-15T22:26:10.922Z,28.98
2018-02-15T22:28:39.946Z,29.58
2018-02-15T22:31:08.922Z,31.00
2018-02-15T22:33:37.869Z,31.98
2018-02-15T22:36:07.196Z,33.50
2018-02-15T22:38:38.237Z,30.90
2018-02-15T22:41:07.950Z,31.40
2018-02-15T22:43:37.733Z,31.58
2018-02-15T22:46:06.917Z,28.73
2018-02-15T22:48:36.664Z,31.02
2018-02-15T22:51:05.617Z,29.15
2018-02-15T22:53:35.613Z,30.05
2018-02-15T22:56:04.537Z,29.12
2018-02-15T22:58:34.215Z,29.87
2018-02-15T23:01:03.185Z,31.90
2018-02-15T23:03:32.106Z,30.55
2018-02-15T23:06:01.037Z,29.37
2018-02-15T23:08:29.973Z,31.92
2018-02-15T23:10:59.064Z,30.65
2018-02-15T23:13:28.060Z,32.22
2018-02-15T23:15:56.998Z,30.35
2018-02-15T23:18:26.707Z,26.52
2018-02-15T23:20:55.661Z,29.70
2018-02-15T23:23:25.403Z,28.48
2018-02-15T23:25:55.379Z,27.05
2018-02-15T23:28:24.331Z,27.52
2018-02-15T23:30:53.268Z,27.67
2018-02-15T23:33:22.204Z,28.50
2018-02-15T23:35:51.449Z,28.73
2018-02-15T23:38:20.454Z,28.77
2018-02-15T23:40:49.389Z,27.80
2018-02-15T23:43:18.320Z,26.55
2018-02-15T23:45:48.681Z,27.30
2018-02-15T23:48:19.259Z,28.12
2018-02-15T23:50:48.214Z,30.40
2018-02-15T23:53:22.637Z,28.33
2018-02-15T23:55:54.611Z,27.67
2018-02-15T23:58:23.519Z,30.30
